createdAt,value
2022-08-04T00:02:28.076Z,76703.59
2022-08-04T00:05:01.384Z,76705.69
2022-08-04T00:07:44.225Z,76701.50
2022-08-04T00:10:12.624Z,76707.75
2022-08-04T00:12:45.410Z,76705.69
2022-08-04T00:15:16.427Z,76711.94
2022-08-04T00:17:46.497Z,76716.13
2022-08-04T00:20:18.444Z,76716.13
2022-08-04T00:22:46.208Z,76714.03
2022-08-04T00:25:12.784Z,76741.19
2022-08-04T00:27:39.377Z,76747.47
2022-08-04T00:30:07.218Z,76739.13
2022-08-04T00:32:34.909Z,76747.47
2022-08-04T00:35:01.753Z,76739.13
2022-08-04T00:37:28.350Z,76743.28
2022-08-04T00:39:55.750Z,76747.47
2022-08-04T00:42:35.423Z,76749.56
2022-08-04T00:45:26.013Z,76751.66
2022-08-04T00:48:31.248Z,76749.56
2022-08-04T00:51:03.646Z,76755.84
2022-08-04T00:53:49.968Z,76772.56
2022-08-04T00:56:28.850Z,76797.63
2022-08-04T00:59:18.103Z,76812.25
2022-08-04T01:02:00.743Z,76818.53
2022-08-04T01:04:42.618Z,76812.25
2022-08-04T01:07:18.104Z,76822.69
2022-08-04T01:09:56.007Z,76828.97
2022-08-04T01:12:31.629Z,76839.41
2022-08-04T01:15:08.090Z,76854.06
2022-08-04T01:17:46.827Z,76854.06
2022-08-04T01:20:18.495Z,76858.22
2022-08-04T01:23:12.562Z,76860.31
2022-08-04T01:26:42.151Z,76860.31
2022-08-04T01:29:13.585Z,76862.41
2022-08-04T01:31:42.659Z,76866.59
2022-08-04T01:34:12.756Z,76866.59
2022-08-04T01:36:45.387Z,76858.22
2022-08-04T01:39:36.003Z,76851.97
2022-08-04T01:42:04.380Z,76843.59
2022-08-04T01:44:31.130Z,76835.25
2022-08-04T01:46:57.989Z,76841.50
2022-08-04T01:49:29.956Z,76849.88
2022-08-04T01:52:08.710Z,76858.22
2022-08-04T01:54:38.132Z,76860.31
2022-08-04T01:57:36.807Z,76866.59
2022-08-04T01:59:53.471Z,76874.94
2022-08-04T02:02:24.488Z,76870.78
2022-08-04T02:04:51.338Z,76862.41
2022-08-04T02:07:41.511Z,76860.31
2022-08-04T02:10:24.600Z,76860.31
2022-08-04T02:13:15.884Z,76858.22
2022-08-04T02:15:45.411Z,76847.78
2022-08-04T02:18:26.703Z,76851.97
2022-08-04T02:21:01.708Z,76862.41
2022-08-04T02:23:34.483Z,76866.59
2022-08-04T02:26:07.462Z,76864.50
2022-08-04T02:29:00.199Z,76870.78
2022-08-04T02:31:33.785Z,76870.78
2022-08-04T02:34:10.094Z,76870.78
2022-08-04T02:36:41.127Z,76874.94
2022-08-04T02:39:10.333Z,76874.94
2022-08-04T02:41:37.876Z,76889.59
2022-08-04T02:44:06.687Z,76887.50
2022-08-04T02:46:34.680Z,76883.31
2022-08-04T02:49:09.667Z,76881.22
2022-08-04T02:51:38.578Z,76883.31
2022-08-04T02:54:06.587Z,76883.31
2022-08-04T02:56:34.986Z,76889.59
2022-08-04T02:59:11.967Z,76893.75
2022-08-04T03:01:56.869Z,76893.75
2022-08-04T03:04:45.681Z,76908.38
2022-08-04T03:07:30.627Z,76883.31
2022-08-04T03:10:35.796Z,76883.31
2022-08-04T03:13:26.969Z,76891.66
2022-08-04T03:16:20.664Z,76897.94
2022-08-04T03:18:59.226Z,76900.03
2022-08-04T03:21:34.524Z,76916.75
2022-08-04T03:24:20.058Z,76925.09
2022-08-04T03:26:56.209Z,76929.28
2022-08-04T03:29:56.711Z,76935.56
2022-08-04T03:32:38.276Z,76943.91
2022-08-04T03:35:23.032Z,76952.28
2022-08-04T03:38:21.257Z,76954.38
2022-08-04T03:41:09.511Z,76952.28
2022-08-04T03:44:23.678Z,76956.47
2022-08-04T03:47:20.948Z,76960.63
2022-08-04T03:50:06.352Z,76964.81
2022-08-04T03:52:51.642Z,76960.63
2022-08-04T03:55:25.560Z,76946.00
2022-08-04T03:57:58.343Z,76941.81
2022-08-04T04:00:31.548Z,76950.19
2022-08-04T04:03:29.111Z,76956.47
2022-08-04T04:05:59.775Z,76956.47
2022-08-04T04:08:43.352Z,76969.00
2022-08-04T04:11:54.210Z,76973.19
2022-08-04T04:14:43.696Z,76975.25
2022-08-04T04:17:31.198Z,76979.44
2022-08-04T04:20:03.690Z,76983.63
2022-08-04T04:22:36.630Z,76983.63
2022-08-04T04:25:37.192Z,76983.63
2022-08-04T04:28:44.599Z,76975.25
2022-08-04T04:31:49.296Z,76981.53
2022-08-04T04:34:34.602Z,76983.63
2022-08-04T04:37:26.073Z,76985.72
2022-08-04T04:40:15.932Z,76985.72
2022-08-04T04:43:17.937Z,76981.53
2022-08-04T04:46:21.176Z,76983.63
2022-08-04T04:48:53.748Z,76981.53
2022-08-04T04:51:31.593Z,76973.19
2022-08-04T04:54:09.006Z,76958.53
2022-08-04T04:56:48.037Z,76956.47
2022-08-04T04:59:17.178Z,76952.28
2022-08-04T05:02:19.289Z,76939.75
2022-08-04T05:05:03.866Z,76948.09
2022-08-04T05:08:44.401Z,76933.47
2022-08-04T05:11:25.831Z,76925.09
2022-08-04T05:14:36.109Z,76925.09
2022-08-04T05:16:47.259Z,76923.00
2022-08-04T05:19:29.156Z,76912.56
2022-08-04T05:22:04.580Z,76912.56
2022-08-04T05:24:35.047Z,76910.47
2022-08-04T05:27:06.468Z,76908.38
2022-08-04T05:29:36.605Z,76904.22
2022-08-04T05:32:12.847Z,76891.66
2022-08-04T05:34:42.342Z,76887.50
2022-08-04T05:37:11.347Z,76887.50
2022-08-04T05:39:47.091Z,76877.03
2022-08-04T05:42:14.457Z,76877.03
2022-08-04T05:44:45.341Z,76874.94
2022-08-04T05:47:15.626Z,76866.59
2022-08-04T05:49:42.646Z,76856.13
2022-08-04T05:52:10.632Z,76854.06
2022-08-04T05:54:38.809Z,76854.06
2022-08-04T05:57:05.568Z,76843.59
2022-08-04T05:59:33.009Z,76839.41
2022-08-04T06:02:00.852Z,76833.16
2022-08-04T06:04:36.283Z,76828.97
2022-08-04T06:07:03.446Z,76822.69
2022-08-04T06:09:30.506Z,76808.06
2022-08-04T06:12:03.653Z,76806.00
2022-08-04T06:14:38.737Z,76797.63
2022-08-04T06:18:33.949Z,76789.28
2022-08-04T06:20:00.537Z,76783.00
2022-08-04T06:22:33.500Z,76774.63
2022-08-04T06:25:01.757Z,76768.38
2022-08-04T06:27:29.915Z,76760.00
2022-08-04T06:29:56.546Z,76747.47
2022-08-04T06:32:41.427Z,76739.13
2022-08-04T06:35:09.093Z,76730.75
2022-08-04T06:37:42.629Z,76714.03
2022-08-04T06:40:31.783Z,76705.69
2022-08-04T06:43:00.772Z,76703.59
2022-08-04T06:45:27.278Z,76699.41
2022-08-04T06:47:54.728Z,76682.69
2022-08-04T06:51:24.373Z,76686.88
2022-08-04T06:53:08.079Z,76686.88
2022-08-04T06:55:34.673Z,76680.59
2022-08-04T06:58:03.455Z,76676.41
2022-08-04T07:00:31.368Z,76670.16
2022-08-04T07:02:58.746Z,76665.97
2022-08-04T07:05:25.424Z,76661.78
2022-08-04T07:07:57.898Z,76663.88
2022-08-04T07:10:28.178Z,76645.06
2022-08-04T07:12:59.036Z,76640.91
2022-08-04T07:15:26.346Z,76640.91
2022-08-04T07:17:54.169Z,76630.44
2022-08-04T07:20:33.863Z,76632.53
2022-08-04T07:23:02.010Z,76617.91
2022-08-04T07:25:28.904Z,76605.38
2022-08-04T07:28:15.282Z,76607.47
2022-08-04T07:30:44.425Z,76588.66
2022-08-04T07:33:11.518Z,76578.19
2022-08-04T07:36:05.353Z,76565.66
2022-08-04T07:38:27.611Z,76555.22
2022-08-04T07:40:55.417Z,76546.84
2022-08-04T07:43:22.493Z,76551.03
2022-08-04T07:45:49.077Z,76551.03
2022-08-04T07:48:18.823Z,76542.69
2022-08-04T07:50:45.962Z,76540.59
2022-08-04T07:53:53.197Z,76534.31
2022-08-04T07:56:00.598Z,76534.31
2022-08-04T07:58:30.098Z,76521.78
2022-08-04T08:00:57.797Z,76517.59
2022-08-04T08:03:25.491Z,76513.41
2022-08-04T08:06:16.836Z,76500.88
2022-08-04T08:08:40.095Z,76480.00
2022-08-04T08:11:10.927Z,76469.53
2022-08-04T08:13:37.948Z,76465.38
2022-08-04T08:16:05.710Z,76452.81
2022-08-04T08:18:32.476Z,76440.28
2022-08-04T08:20:59.242Z,76425.66
2022-08-04T08:23:26.555Z,76421.47
2022-08-04T08:25:53.177Z,76402.66
2022-08-04T08:28:19.724Z,76406.84
2022-08-04T08:30:46.235Z,76383.88
2022-08-04T08:33:20.734Z,76373.41
2022-08-04T08:35:53.655Z,76365.06
2022-08-04T08:38:27.926Z,76348.34
2022-08-04T08:40:59.225Z,76337.91
2022-08-04T08:44:05.342Z,76329.53
2022-08-04T08:46:49.643Z,76306.56
2022-08-04T08:50:02.102Z,76298.19
2022-08-04T08:53:00.668Z,76277.31
2022-08-04T08:55:47.012Z,76264.75
2022-08-04T08:58:42.604Z,76254.31
2022-08-04T09:01:24.406Z,76229.25
2022-08-04T09:04:23.751Z,76225.06
2022-08-04T09:07:00.432Z,76214.63
2022-08-04T09:09:36.522Z,76216.69
2022-08-04T09:12:07.538Z,76185.34
2022-08-04T09:14:48.470Z,76108.06
2022-08-04T09:17:36.339Z,76078.78
2022-08-04T09:20:24.077Z,76055.81
2022-08-04T09:22:52.417Z,76076.72
2022-08-04T09:26:04.822Z,76060.00
2022-08-04T09:28:53.723Z,76051.63
2022-08-04T09:31:23.658Z,76026.56
2022-08-04T09:34:28.072Z,76003.56
2022-08-04T09:37:13.209Z,75984.78
2022-08-04T09:39:51.952Z,75938.81
2022-08-04T09:42:26.100Z,75913.75
2022-08-04T09:45:06.150Z,75901.19
2022-08-04T09:47:55.770Z,75922.09
2022-08-04T09:50:45.823Z,75821.81
2022-08-04T09:53:31.267Z,75851.06
2022-08-04T09:56:32.882Z,75832.25
2022-08-04T09:59:25.438Z,75828.06
2022-08-04T10:01:59.939Z,75828.06
2022-08-04T10:04:29.544Z,75830.16
2022-08-04T10:07:18.693Z,75734.06
2022-08-04T10:09:50.658Z,75671.38
2022-08-04T10:12:29.327Z,75658.84
2022-08-04T10:15:11.729Z,75637.94
2022-08-04T10:17:54.756Z,75640.03
2022-08-04T10:21:00.033Z,75598.25
2022-08-04T10:24:20.658Z,75583.63
2022-08-04T10:26:57.223Z,75560.66
2022-08-04T10:29:44.152Z,75539.75
2022-08-04T10:32:17.109Z,75529.31
2022-08-04T10:34:55.135Z,75520.97
2022-08-04T10:37:59.007Z,75502.16
2022-08-04T10:40:46.950Z,75483.34
2022-08-04T10:43:32.629Z,75460.38
2022-08-04T10:46:07.895Z,75449.94
2022-08-04T10:48:51.547Z,75424.84
2022-08-04T10:51:30.188Z,75416.50
2022-08-04T10:54:45.251Z,75410.22
2022-08-04T10:57:16.793Z,75426.94
2022-08-04T10:59:58.927Z,75424.84
2022-08-04T11:02:48.878Z,75406.06
2022-08-04T11:05:52.458Z,75399.78
2022-08-04T11:08:39.706Z,75410.22
2022-08-04T11:11:13.712Z,75414.41
2022-08-04T11:13:49.960Z,75395.59
2022-08-04T11:16:54.145Z,75358.00
2022-08-04T11:19:44.976Z,75347.56
2022-08-04T11:22:23.355Z,75353.84
2022-08-04T11:24:54.126Z,75337.13
2022-08-04T11:27:37.672Z,75322.50
2022-08-04T11:30:09.868Z,75309.97
2022-08-04T11:33:03.679Z,75303.69
2022-08-04T11:35:52.825Z,75320.41
2022-08-04T11:38:29.177Z,75309.97
2022-08-04T11:41:03.147Z,75297.44
2022-08-04T11:44:03.141Z,75301.59
2022-08-04T11:46:38.622Z,75293.25
2022-08-04T11:49:12.035Z,75278.63
2022-08-04T11:51:39.400Z,75266.09
2022-08-04T11:54:06.134Z,75259.81
2022-08-04T11:56:36.867Z,75286.97
2022-08-04T11:59:07.636Z,75276.53
2022-08-04T12:01:58.877Z,75295.34
2022-08-04T12:04:47.421Z,75337.13
2022-08-04T12:07:30.496Z,75318.31
2022-08-04T12:10:41.379Z,75320.41
2022-08-04T12:13:23.778Z,75349.66
2022-08-04T12:15:58.133Z,75372.63
2022-08-04T12:18:33.586Z,75368.44
2022-08-04T12:21:09.829Z,75366.38
2022-08-04T12:23:40.397Z,75316.22
2022-08-04T12:26:09.442Z,75299.50
2022-08-04T12:29:07.281Z,75309.97
2022-08-04T12:31:27.823Z,75322.50
2022-08-04T12:34:04.946Z,75335.03
2022-08-04T12:36:39.607Z,75349.66
2022-08-04T12:39:13.075Z,75355.91
2022-08-04T12:41:52.176Z,75324.59
2022-08-04T12:44:36.638Z,75318.31
2022-08-04T12:47:36.198Z,75326.66
2022-08-04T12:50:00.811Z,75324.59
2022-08-04T12:52:51.634Z,75326.66
2022-08-04T12:55:15.668Z,75351.75
2022-08-04T12:57:42.929Z,75347.56
2022-08-04T13:00:10.943Z,75314.13
2022-08-04T13:02:41.926Z,75272.34
2022-08-04T13:05:09.745Z,75241.03
2022-08-04T13:07:48.057Z,75236.84
2022-08-04T13:10:18.280Z,75253.56
2022-08-04T13:12:52.944Z,75251.47
2022-08-04T13:15:22.077Z,75272.34
2022-08-04T13:17:59.209Z,75272.34
2022-08-04T13:20:37.570Z,75268.19
2022-08-04T13:23:11.971Z,75255.66
2022-08-04T13:26:45.099Z,75218.03
2022-08-04T13:28:36.842Z,75190.88
2022-08-04T13:31:12.705Z,75215.94
2022-08-04T13:33:41.855Z,75228.50
2022-08-04T13:36:09.316Z,75238.94
2022-08-04T13:38:44.948Z,75205.50
2022-08-04T13:41:11.727Z,75178.34
2022-08-04T13:44:15.695Z,75172.09
2022-08-04T13:46:32.710Z,75203.41
2022-08-04T13:49:28.275Z,75190.88
2022-08-04T13:51:57.350Z,75155.38
2022-08-04T13:54:27.259Z,75182.53
2022-08-04T13:57:00.050Z,75186.72
2022-08-04T13:59:28.564Z,75195.06
2022-08-04T14:02:01.707Z,75213.88
2022-08-04T14:04:29.220Z,75257.72
2022-08-04T14:07:03.451Z,75278.63
2022-08-04T14:09:34.801Z,75276.53
2022-08-04T14:12:45.812Z,75257.72
2022-08-04T14:15:01.902Z,75272.34
2022-08-04T14:17:29.857Z,75293.25
2022-08-04T14:19:57.346Z,75309.97
2022-08-04T14:22:26.790Z,75318.31
2022-08-04T14:25:04.543Z,75360.09
2022-08-04T14:27:47.837Z,75366.38
2022-08-04T14:30:23.902Z,75387.25
2022-08-04T14:34:02.598Z,75393.53
2022-08-04T14:36:03.868Z,75435.31
2022-08-04T14:38:46.795Z,75422.78
2022-08-04T14:41:15.008Z,75431.13
2022-08-04T14:43:54.208Z,75439.47
2022-08-04T14:46:22.413Z,75433.22
2022-08-04T14:49:12.842Z,75447.84
2022-08-04T14:51:45.260Z,75452.00
2022-08-04T14:54:18.038Z,75475.00
2022-08-04T14:56:53.371Z,75489.63
2022-08-04T14:59:19.966Z,75500.06
2022-08-04T15:02:01.022Z,75543.94
2022-08-04T15:04:29.545Z,75548.13
2022-08-04T15:06:56.220Z,75583.63
2022-08-04T15:09:23.155Z,75587.81
2022-08-04T15:11:49.738Z,75610.78
2022-08-04T15:14:36.367Z,75631.69
2022-08-04T15:17:04.016Z,75656.75
2022-08-04T15:19:31.842Z,75660.94
2022-08-04T15:22:00.891Z,75688.09
2022-08-04T15:24:27.424Z,75704.81
2022-08-04T15:26:56.407Z,75757.03
2022-08-04T15:29:30.826Z,75780.03
2022-08-04T15:32:17.917Z,75792.56
2022-08-04T15:34:49.048Z,75800.91
2022-08-04T15:37:19.422Z,75828.06
2022-08-04T15:39:53.936Z,75855.22
2022-08-04T15:42:32.650Z,75853.16
2022-08-04T15:45:13.681Z,75851.06
2022-08-04T15:47:40.385Z,75853.16
2022-08-04T15:50:12.614Z,75848.97
2022-08-04T15:53:10.508Z,75861.50
2022-08-04T15:55:42.136Z,75865.69
2022-08-04T15:58:11.856Z,75869.84
2022-08-04T16:00:50.502Z,75863.59
2022-08-04T16:03:57.920Z,75867.78
2022-08-04T16:11:48.946Z,75874.03
2022-08-04T16:14:15.479Z,75884.47
2022-08-04T16:16:49.909Z,75892.84
2022-08-04T16:19:43.713Z,75903.28
2022-08-04T16:22:11.365Z,75899.09
2022-08-04T16:24:40.223Z,75913.75
2022-08-04T16:27:08.338Z,75926.28
2022-08-04T16:30:14.271Z,75930.44
2022-08-04T16:32:43.417Z,75938.81
2022-08-04T16:35:27.477Z,75945.06
2022-08-04T16:38:14.696Z,75949.25
2022-08-04T16:40:45.706Z,75951.34
2022-08-04T16:43:14.669Z,75965.97
2022-08-04T16:45:49.535Z,75968.06
2022-08-04T16:48:17.978Z,75986.88
2022-08-04T16:50:49.977Z,75986.88
2022-08-04T16:54:03.769Z,76001.50
2022-08-04T16:56:06.148Z,75993.13
2022-08-04T16:58:36.785Z,76001.50
2022-08-04T17:01:21.843Z,76014.03
2022-08-04T17:04:04.696Z,76024.47
2022-08-04T17:06:39.078Z,76043.28
2022-08-04T17:09:09.693Z,76055.81
2022-08-04T17:11:36.295Z,76057.91
2022-08-04T17:14:05.775Z,76060.00
2022-08-04T17:16:38.099Z,76076.72
2022-08-04T17:19:05.630Z,76080.88
2022-08-04T17:21:34.318Z,76087.16
2022-08-04T17:24:16.307Z,76097.59
2022-08-04T17:26:51.970Z,76101.78
2022-08-04T17:29:21.889Z,76103.88
2022-08-04T17:31:48.439Z,76103.88
2022-08-04T17:34:19.263Z,76112.22
2022-08-04T17:36:47.732Z,76122.69
2022-08-04T17:39:22.334Z,76122.69
2022-08-04T17:41:55.902Z,76131.03
2022-08-04T17:44:36.423Z,76118.50
2022-08-04T17:47:18.071Z,76120.59
2022-08-04T17:49:53.236Z,76131.03
2022-08-04T17:52:39.622Z,76135.22
2022-08-04T17:55:16.283Z,76158.19
2022-08-04T17:57:52.359Z,76177.00
2022-08-04T18:00:19.958Z,76183.28
2022-08-04T18:02:53.494Z,76181.19
2022-08-04T18:05:50.185Z,76191.63
2022-08-04T18:08:45.450Z,76195.81
2022-08-04T18:11:01.784Z,76193.72
2022-08-04T18:13:28.729Z,76204.16
2022-08-04T18:16:05.884Z,76218.78
2022-08-04T18:18:39.274Z,76218.78
2022-08-04T18:21:05.931Z,76235.50
2022-08-04T18:23:33.382Z,76239.69
2022-08-04T18:26:02.243Z,76260.59
2022-08-04T18:28:30.912Z,76266.84
2022-08-04T18:30:59.996Z,76266.84
2022-08-04T18:36:34.973Z,76262.66
2022-08-04T18:39:13.440Z,76268.94
2022-08-04T18:42:02.499Z,76275.22
2022-08-04T18:44:30.991Z,76273.13
2022-08-04T18:46:57.755Z,76266.84
2022-08-04T18:50:58.918Z,76279.38
2022-08-04T18:52:30.783Z,76283.56
2022-08-04T18:54:57.352Z,76289.84
2022-08-04T18:57:59.658Z,76296.09
2022-08-04T19:00:16.237Z,76302.38
2022-08-04T19:02:46.457Z,76319.09
2022-08-04T19:05:17.329Z,76321.19
2022-08-04T19:08:01.665Z,76344.16
2022-08-04T19:10:29.314Z,76360.88
2022-08-04T19:12:56.103Z,76379.69
2022-08-04T19:15:22.709Z,76379.69
2022-08-04T19:18:01.094Z,76381.78
2022-08-04T19:20:29.461Z,76383.88
2022-08-04T19:24:28.584Z,76388.03
2022-08-04T19:26:02.754Z,76390.13
2022-08-04T19:28:34.861Z,76394.31
2022-08-04T19:31:07.692Z,76408.94
2022-08-04T19:33:59.136Z,76408.94
2022-08-04T19:36:27.576Z,76427.75
2022-08-04T19:38:55.679Z,76436.09
2022-08-04T19:41:22.521Z,76450.72
2022-08-04T19:43:52.937Z,76463.28
2022-08-04T19:46:19.909Z,76467.44
2022-08-04T19:48:59.371Z,76469.53
2022-08-04T19:51:28.740Z,76465.38
2022-08-04T19:56:41.798Z,76480.00
2022-08-04T19:59:11.258Z,76490.44
2022-08-04T20:01:44.102Z,76498.78
2022-08-04T20:04:12.601Z,76496.72
2022-08-04T20:06:39.415Z,76502.97
2022-08-04T20:09:24.786Z,76498.78
2022-08-04T20:11:53.114Z,76496.72
2022-08-04T20:14:20.105Z,76498.78
2022-08-04T20:16:58.810Z,76509.25
2022-08-04T20:19:25.759Z,76515.50
2022-08-04T20:21:56.393Z,76517.59
2022-08-04T20:24:40.204Z,76523.88
2022-08-04T20:27:14.654Z,76528.06
2022-08-04T20:29:48.542Z,76523.88
2022-08-04T20:32:20.115Z,76521.78
2022-08-04T20:34:49.396Z,76517.59
2022-08-04T20:37:18.249Z,76511.34
2022-08-04T20:39:44.784Z,76528.06
2022-08-04T20:42:27.751Z,76536.41
2022-08-04T20:45:00.407Z,76551.03
2022-08-04T20:47:35.191Z,76561.47
2022-08-04T20:50:14.796Z,76574.03
2022-08-04T20:52:43.591Z,76594.91
2022-08-04T20:55:10.823Z,76605.38
2022-08-04T21:00:29.932Z,76607.47
2022-08-04T21:02:58.135Z,76617.91
2022-08-04T21:05:24.602Z,76611.63
2022-08-04T21:07:56.650Z,76597.00
2022-08-04T21:10:24.498Z,76605.38
2022-08-04T21:12:52.721Z,76611.63
2022-08-04T21:15:24.940Z,76613.72
2022-08-04T21:17:58.870Z,76620.00
2022-08-04T21:20:32.181Z,76617.91
2022-08-04T21:23:01.770Z,76615.81
2022-08-04T21:25:29.430Z,76620.00
2022-08-04T21:27:58.471Z,76628.34
2022-08-04T21:30:26.653Z,76642.97
2022-08-04T21:32:55.159Z,76640.91
2022-08-04T21:35:22.826Z,76651.34
2022-08-04T21:38:03.712Z,76663.88
2022-08-04T21:40:36.930Z,76670.16
2022-08-04T21:43:05.634Z,76670.16
2022-08-04T21:45:36.273Z,76668.06
2022-08-04T21:48:03.339Z,76674.34
2022-08-04T21:50:31.118Z,76686.88
2022-08-04T21:52:58.947Z,76691.06
2022-08-04T21:56:04.848Z,76701.50
2022-08-04T21:58:13.370Z,76691.06
2022-08-04T22:00:40.499Z,76688.97
2022-08-04T22:03:18.666Z,76705.69
2022-08-04T22:05:55.410Z,76701.50
2022-08-04T22:08:22.520Z,76701.50
2022-08-04T22:10:50.183Z,76714.03
2022-08-04T22:13:22.700Z,76726.56
2022-08-04T22:16:04.768Z,76722.41
2022-08-04T22:18:32.203Z,76724.47
2022-08-04T22:21:04.120Z,76726.56
2022-08-04T22:23:45.269Z,76741.19
2022-08-04T22:26:20.248Z,76734.94
2022-08-04T22:28:53.873Z,76747.47
2022-08-04T22:31:23.303Z,76755.84
2022-08-04T22:33:54.482Z,76768.38
2022-08-04T22:36:22.204Z,76774.63
2022-08-04T22:38:57.056Z,76774.63
2022-08-04T22:41:33.737Z,76774.63
2022-08-04T22:44:01.070Z,76783.00
2022-08-04T22:46:30.055Z,76787.19
2022-08-04T22:48:57.036Z,76785.09
2022-08-04T22:51:27.267Z,76797.63
2022-08-04T22:53:54.693Z,76801.81
2022-08-04T22:56:38.572Z,76814.34
2022-08-04T22:59:06.626Z,76814.34
2022-08-04T23:01:59.535Z,76820.63
2022-08-04T23:04:23.292Z,76824.78
2022-08-04T23:06:50.126Z,76833.16
2022-08-04T23:09:17.101Z,76837.34
2022-08-04T23:11:43.937Z,76847.78
2022-08-04T23:14:10.702Z,76860.31
2022-08-04T23:16:40.630Z,76868.69
2022-08-04T23:19:11.995Z,76881.22
2022-08-04T23:21:40.977Z,76883.31
2022-08-04T23:24:13.729Z,76904.22
2022-08-04T23:26:40.280Z,76893.75
2022-08-04T23:29:08.145Z,76902.13
2022-08-04T23:31:40.573Z,76912.56
2022-08-04T23:34:08.629Z,76912.56
2022-08-04T23:36:35.158Z,76918.84
2022-08-04T23:39:06.339Z,76916.75
2022-08-04T23:41:54.616Z,76916.75
2022-08-04T23:44:25.478Z,76927.19
2022-08-04T23:47:02.723Z,76923.00
2022-08-04T23:49:43.182Z,76918.84
2022-08-04T23:52:23.521Z,76916.75
2022-08-04T23:54:58.398Z,76925.09
2022-08-04T23:57:25.792Z,76937.66
